Deering, North Dakota
Current Conditions -  °F | °C
As of 9:58 PM on Sunday 23 Nov 2014 (Local Time) from KMIB Reporting Station
Overcast Overcast  
Wind Chill: -6°   Ceiling: 1400
Heat Index: 12°   Visibility: 10mi
Dew Point:   Wind: 20mph
Humidity: 82%   Direction: 330°NNW
Pressure: 29.74"   Gusts: NA
Location:  48.4°N, 101.05°W
Report Text: KMIB 240358Z AUTO 33017KT 10SM SCT008 OVC014 M11/M13 A2974 RMK AO2 SNB0341E0342 OVC V BKN SLP106 P0000 T11091134
Loading
Personal Weather Stations






























Interactive Weather Map New forecast layout! Learn more

10-Day Weather Forecast

Advertisements
Track Severe Weather on mobile